Penndel, Pennsylvania
Current Conditions -  °F | °C
As of 4:54 AM on Monday 22 Dec 2014 (Local Time) from KPNE Reporting Station
Overcast Overcast  
Wind Chill: 31°   Ceiling: 2000
Heat Index: 35°   Visibility: 10mi
Dew Point: 25°   Wind: 5mph
Humidity: 67%   Direction: 10°N
Pressure: 30.32"   Gusts: NA
Location:  40.1816°N, 74.9144°W
Report Text: KPNE 220954Z AUTO 01004KT 10SM OVC020 02/M04 A3032 RMK AO2 SLP269 T00171039 TSNO
Loading
Personal Weather Stations






























Interactive Weather Map New forecast layout! Learn more

10-Day Weather Forecast

Advertisements
Track Severe Weather on mobile